sensor_id;sensor_type;location;lat;lon;timestamp;temperature;humidity
20291;DHT22;10304;51.074;13.754;2023-08-30T00:01:03;18.20;99.90
20291;DHT22;10304;51.074;13.754;2023-08-30T00:03:29;18.30;1.00
20291;DHT22;10304;51.074;13.754;2023-08-30T00:06:05;18.40;99.90
20291;DHT22;10304;51.074;13.754;2023-08-30T00:08:33;18.50;1.00
20291;DHT22;10304;51.074;13.754;2023-08-30T00:11:00;18.50;99.90
20291;DHT22;10304;51.074;13.754;2023-08-30T00:13:28;18.50;99.90
20291;DHT22;10304;51.074;13.754;2023-08-30T00:15:55;18.50;99.90
20291;DHT22;10304;51.074;13.754;2023-08-30T00:18:22;18.60;99.90
20291;DHT22;10304;51.074;13.754;2023-08-30T00:20:48;18.50;5.30
20291;DHT22;10304;51.074;13.754;2023-08-30T00:23:15;18.50;1.00
20291;DHT22;10304;51.074;13.754;2023-08-30T00:25:43;18.60;99.90
20291;DHT22;10304;51.074;13.754;2023-08-30T00:28:10;18.50;1.00
20291;DHT22;10304;51.074;13.754;2023-08-30T00:30:37;18.50;1.00
20291;DHT22;10304;51.074;13.754;2023-08-30T00:33:04;18.40;1.00
20291;DHT22;10304;51.074;13.754;2023-08-30T00:35:31;18.40;99.90
20291;DHT22;10304;51.074;13.754;2023-08-30T00:37:58;18.40;1.00
20291;DHT22;10304;51.074;13.754;2023-08-30T00:40:25;18.40;1.00
20291;DHT22;10304;51.074;13.754;2023-08-30T00:42:52;18.50;99.90
20291;DHT22;10304;51.074;13.754;2023-08-30T00:45:19;18.50;99.90
20291;DHT22;10304;51.074;13.754;2023-08-30T00:47:46;18.60;99.90
20291;DHT22;10304;51.074;13.754;2023-08-30T00:50:14;18.60;99.90
20291;DHT22;10304;51.074;13.754;2023-08-30T00:52:41;18.70;1.00
20291;DHT22;10304;51.074;13.754;2023-08-30T00:55:08;18.70;1.00
20291;DHT22;10304;51.074;13.754;2023-08-30T00:57:36;18.70;1.00
20291;DHT22;10304;51.074;13.754;2023-08-30T01:00:05;18.60;99.90
20291;DHT22;10304;51.074;13.754;2023-08-30T01:02:33;18.60;1.00
20291;DHT22;10304;51.074;13.754;2023-08-30T01:05:01;18.50;1.00
20291;DHT22;10304;51.074;13.754;2023-08-30T01:07:28;18.50;1.00
20291;DHT22;10304;51.074;13.754;2023-08-30T01:09:55;18.60;1.00
20291;DHT22;10304;51.074;13.754;2023-08-30T01:12:30;18.60;1.00
20291;DHT22;10304;51.074;13.754;2023-08-30T01:15:09;18.70;1.00
20291;DHT22;10304;51.074;13.754;2023-08-30T01:17:39;18.70;1.00
20291;DHT22;10304;51.074;13.754;2023-08-30T01:20:08;18.80;99.90
20291;DHT22;10304;51.074;13.754;2023-08-30T01:22:55;18.90;1.00
20291;DHT22;10304;51.074;13.754;2023-08-30T01:28:10;18.90;1.00
20291;DHT22;10304;51.074;13.754;2023-08-30T01:30:40;18.90;1.00
20291;DHT22;10304;51.074;13.754;2023-08-30T01:33:09;18.90;1.00
20291;DHT22;10304;51.074;13.754;2023-08-30T01:35:36;18.80;1.00
20291;DHT22;10304;51.074;13.754;2023-08-30T01:38:05;18.90;1.00
20291;DHT22;10304;51.074;13.754;2023-08-30T01:40:36;18.90;1.00
20291;DHT22;10304;51.074;13.754;2023-08-30T01:43:05;19.00;1.00
20291;DHT22;10304;51.074;13.754;2023-08-30T01:45:39;19.00;1.00
20291;DHT22;10304;51.074;13.754;2023-08-30T01:48:09;19.00;1.00
20291;DHT22;10304;51.074;13.754;2023-08-30T01:50:40;19.10;99.90
20291;DHT22;10304;51.074;13.754;2023-08-30T01:53:08;19.10;99.90
20291;DHT22;10304;51.074;13.754;2023-08-30T01:55:36;19.10;1.00
20291;DHT22;10304;51.074;13.754;2023-08-30T01:58:06;19.00;1.00
20291;DHT22;10304;51.074;13.754;2023-08-30T02:00:35;18.90;99.90
20291;DHT22;10304;51.074;13.754;2023-08-30T02:03:10;18.80;99.90
20291;DHT22;10304;51.074;13.754;2023-08-30T02:05:43;18.90;99.90
20291;DHT22;10304;51.074;13.754;2023-08-30T02:08:22;18.80;99.90
20291;DHT22;10304;51.074;13.754;2023-08-30T02:10:58;18.80;1.00
20291;DHT22;10304;51.074;13.754;2023-08-30T02:13:28;18.80;1.00
20291;DHT22;10304;51.074;13.754;2023-08-30T02:15:59;18.80;1.00
20291;DHT22;10304;51.074;13.754;2023-08-30T02:18:27;18.80;99.90
20291;DHT22;10304;51.074;13.754;2023-08-30T02:20:54;18.80;99.90
20291;DHT22;10304;51.074;13.754;2023-08-30T02:23:24;18.80;99.90
20291;DHT22;10304;51.074;13.754;2023-08-30T02:25:53;18.70;99.90
20291;DHT22;10304;51.074;13.754;2023-08-30T02:28:20;18.70;99.90
20291;DHT22;10304;51.074;13.754;2023-08-30T02:30:47;18.70;1.00
20291;DHT22;10304;51.074;13.754;2023-08-30T02:33:14;18.70;99.90
20291;DHT22;10304;51.074;13.754;2023-08-30T02:35:40;18.60;99.90
20291;DHT22;10304;51.074;13.754;2023-08-30T02:38:07;18.60;99.90
20291;DHT22;10304;51.074;13.754;2023-08-30T02:40:34;18.50;1.00
20291;DHT22;10304;51.074;13.754;2023-08-30T02:43:01;18.50;1.00
20291;DHT22;10304;51.074;13.754;2023-08-30T02:45:28;18.50;99.90
20291;DHT22;10304;51.074;13.754;2023-08-30T02:47:56;18.40;99.90
20291;DHT22;10304;51.074;13.754;2023-08-30T02:50:24;18.40;1.00
20291;DHT22;10304;51.074;13.754;2023-08-30T02:52:51;18.40;1.00
20291;DHT22;10304;51.074;13.754;2023-08-30T02:55:18;18.40;1.00
20291;DHT22;10304;51.074;13.754;2023-08-30T02:57:45;18.40;1.00
20291;DHT22;10304;51.074;13.754;2023-08-30T03:00:13;18.40;1.00
20291;DHT22;10304;51.074;13.754;2023-08-30T03:02:40;18.50;1.00
20291;DHT22;10304;51.074;13.754;2023-08-30T03:05:07;18.50;1.00
20291;DHT22;10304;51.074;13.754;2023-08-30T03:07:34;18.50;1.00
20291;DHT22;10304;51.074;13.754;2023-08-30T03:10:01;18.50;1.00
20291;DHT22;10304;51.074;13.754;2023-08-30T03:12:29;18.50;1.00
20291;DHT22;10304;51.074;13.754;2023-08-30T03:14:55;18.50;1.00
20291;DHT22;10304;51.074;13.754;2023-08-30T03:17:22;18.40;1.00
20291;DHT22;10304;51.074;13.754;2023-08-30T03:19:52;18.40;1.00
20291;DHT22;10304;51.074;13.754;2023-08-30T03:22:22;18.40;1.00
20291;DHT22;10304;51.074;13.754;2023-08-30T03:24:48;18.40;99.90
20291;DHT22;10304;51.074;13.754;2023-08-30T03:27:16;18.30;1.00
20291;DHT22;10304;51.074;13.754;2023-08-30T03:29:43;18.30;1.00
20291;DHT22;10304;51.074;13.754;2023-08-30T03:32:13;18.20;1.00
20291;DHT22;10304;51.074;13.754;2023-08-30T03:34:39;18.20;1.00
20291;DHT22;10304;51.074;13.754;2023-08-30T03:37:06;18.20;99.90
20291;DHT22;10304;51.074;13.754;2023-08-30T03:39:33;18.20;98.00
20291;DHT22;10304;51.074;13.754;2023-08-30T03:41:59;18.20;6.20
20291;DHT22;10304;51.074;13.754;2023-08-30T03:44:26;18.10;1.00
20291;DHT22;10304;51.074;13.754;2023-08-30T03:46:53;18.10;99.90
20291;DHT22;10304;51.074;13.754;2023-08-30T03:49:20;18.10;84.40
20291;DHT22;10304;51.074;13.754;2023-08-30T03:51:47;18.10;1.00
20291;DHT22;10304;51.074;13.754;2023-08-30T03:54:13;18.00;91.70
20291;DHT22;10304;51.074;13.754;2023-08-30T03:56:46;18.00;1.00
20291;DHT22;10304;51.074;13.754;2023-08-30T03:59:13;18.10;1.00
20291;DHT22;10304;51.074;13.754;2023-08-30T04:01:40;18.10;99.90
20291;DHT22;10304;51.074;13.754;2023-08-30T04:04:07;18.10;99.90
20291;DHT22;10304;51.074;13.754;2023-08-30T04:06:33;18.10;99.90
20291;DHT22;10304;51.074;13.754;2023-08-30T04:09:00;18.10;99.90
20291;DHT22;10304;51.074;13.754;2023-08-30T04:11:27;18.10;99.90
20291;DHT22;10304;51.074;13.754;2023-08-30T04:13:53;18.10;1.00
20291;DHT22;10304;51.074;13.754;2023-08-30T04:16:20;18.00;1.00
20291;DHT22;10304;51.074;13.754;2023-08-30T04:18:47;18.00;50.00
20291;DHT22;10304;51.074;13.754;2023-08-30T04:21:13;18.10;99.90
20291;DHT22;10304;51.074;13.754;2023-08-30T04:23:40;18.10;99.90
20291;DHT22;10304;51.074;13.754;2023-08-30T04:26:07;18.10;99.90
20291;DHT22;10304;51.074;13.754;2023-08-30T04:28:34;18.10;99.90
20291;DHT22;10304;51.074;13.754;2023-08-30T04:31:00;18.10;1.00
20291;DHT22;10304;51.074;13.754;2023-08-30T04:33:27;18.20;99.90
20291;DHT22;10304;51.074;13.754;2023-08-30T04:35:55;18.30;1.00
20291;DHT22;10304;51.074;13.754;2023-08-30T04:38:22;18.30;1.00
20291;DHT22;10304;51.074;13.754;2023-08-30T04:40:49;18.30;1.00
20291;DHT22;10304;51.074;13.754;2023-08-30T04:43:15;18.40;1.00
20291;DHT22;10304;51.074;13.754;2023-08-30T04:45:42;18.40;99.90
20291;DHT22;10304;51.074;13.754;2023-08-30T04:48:12;18.40;99.90
20291;DHT22;10304;51.074;13.754;2023-08-30T04:50:39;18.40;99.90
20291;DHT22;10304;51.074;13.754;2023-08-30T04:53:06;18.40;99.90
20291;DHT22;10304;51.074;13.754;2023-08-30T04:55:33;18.50;99.90
20291;DHT22;10304;51.074;13.754;2023-08-30T04:57:59;18.50;1.00
20291;DHT22;10304;51.074;13.754;2023-08-30T05:00:26;18.50;1.00
20291;DHT22;10304;51.074;13.754;2023-08-30T05:02:53;18.50;1.00
20291;DHT22;10304;51.074;13.754;2023-08-30T05:05:20;18.50;1.00
20291;DHT22;10304;51.074;13.754;2023-08-30T05:07:46;18.50;58.90
20291;DHT22;10304;51.074;13.754;2023-08-30T05:10:13;18.60;1.00
20291;DHT22;10304;51.074;13.754;2023-08-30T05:12:40;18.70;1.00
20291;DHT22;10304;51.074;13.754;2023-08-30T05:15:09;18.70;1.00
20291;DHT22;10304;51.074;13.754;2023-08-30T05:17:36;18.80;1.00
20291;DHT22;10304;51.074;13.754;2023-08-30T05:20:03;18.90;99.90
20291;DHT22;10304;51.074;13.754;2023-08-30T05:22:31;18.90;1.00
20291;DHT22;10304;51.074;13.754;2023-08-30T05:24:57;18.90;1.00
20291;DHT22;10304;51.074;13.754;2023-08-30T05:27:24;18.90;1.00
20291;DHT22;10304;51.074;13.754;2023-08-30T05:29:51;18.80;1.00
20291;DHT22;10304;51.074;13.754;2023-08-30T05:32:18;18.80;1.00
20291;DHT22;10304;51.074;13.754;2023-08-30T05:34:45;18.70;1.00
20291;DHT22;10304;51.074;13.754;2023-08-30T05:37:12;18.60;1.00
20291;DHT22;10304;51.074;13.754;2023-08-30T05:39:38;18.60;99.90
20291;DHT22;10304;51.074;13.754;2023-08-30T05:42:05;18.60;99.90
20291;DHT22;10304;51.074;13.754;2023-08-30T05:44:32;18.60;99.90
20291;DHT22;10304;51.074;13.754;2023-08-30T05:46:59;18.60;99.90
20291;DHT22;10304;51.074;13.754;2023-08-30T05:49:25;18.60;99.90
20291;DHT22;10304;51.074;13.754;2023-08-30T05:51:52;18.60;99.90
20291;DHT22;10304;51.074;13.754;2023-08-30T05:54:19;18.60;99.90
20291;DHT22;10304;51.074;13.754;2023-08-30T05:56:46;18.60;99.90
20291;DHT22;10304;51.074;13.754;2023-08-30T05:59:12;18.60;99.90
20291;DHT22;10304;51.074;13.754;2023-08-30T06:01:39;18.60;99.90
20291;DHT22;10304;51.074;13.754;2023-08-30T06:04:06;18.60;99.90
20291;DHT22;10304;51.074;13.754;2023-08-30T06:06:33;18.60;1.00
20291;DHT22;10304;51.074;13.754;2023-08-30T06:08:59;18.60;1.00
20291;DHT22;10304;51.074;13.754;2023-08-30T06:11:26;18.70;1.00
20291;DHT22;10304;51.074;13.754;2023-08-30T06:13:53;18.70;99.90
20291;DHT22;10304;51.074;13.754;2023-08-30T06:16:21;18.70;1.00
20291;DHT22;10304;51.074;13.754;2023-08-30T06:18:48;18.70;1.00
20291;DHT22;10304;51.074;13.754;2023-08-30T06:21:15;18.80;1.00
20291;DHT22;10304;51.074;13.754;2023-08-30T06:23:41;18.80;1.00
20291;DHT22;10304;51.074;13.754;2023-08-30T06:26:08;18.90;1.00
20291;DHT22;10304;51.074;13.754;2023-08-30T06:28:35;18.90;99.90
20291;DHT22;10304;51.074;13.754;2023-08-30T06:31:04;19.00;99.90
20291;DHT22;10304;51.074;13.754;2023-08-30T06:33:31;19.00;99.90
20291;DHT22;10304;51.074;13.754;2023-08-30T06:35:57;19.00;1.00
20291;DHT22;10304;51.074;13.754;2023-08-30T06:38:24;19.00;1.00
20291;DHT22;10304;51.074;13.754;2023-08-30T06:40:51;19.00;1.00
20291;DHT22;10304;51.074;13.754;2023-08-30T06:43:18;19.00;1.00
20291;DHT22;10304;51.074;13.754;2023-08-30T06:45:45;19.00;1.00
20291;DHT22;10304;51.074;13.754;2023-08-30T06:48:12;19.00;1.00
20291;DHT22;10304;51.074;13.754;2023-08-30T06:50:40;19.10;1.00
20291;DHT22;10304;51.074;13.754;2023-08-30T06:53:06;19.10;99.90
20291;DHT22;10304;51.074;13.754;2023-08-30T06:55:33;19.10;99.90
20291;DHT22;10304;51.074;13.754;2023-08-30T06:58:02;19.10;99.90
20291;DHT22;10304;51.074;13.754;2023-08-30T07:00:29;19.10;99.90
20291;DHT22;10304;51.074;13.754;2023-08-30T07:02:56;19.10;99.90
20291;DHT22;10304;51.074;13.754;2023-08-30T07:05:23;19.10;99.90
20291;DHT22;10304;51.074;13.754;2023-08-30T07:07:50;19.10;99.90
20291;DHT22;10304;51.074;13.754;2023-08-30T07:10:17;19.20;99.90
20291;DHT22;10304;51.074;13.754;2023-08-30T07:12:44;19.20;99.90
20291;DHT22;10304;51.074;13.754;2023-08-30T07:15:11;19.20;99.90
20291;DHT22;10304;51.074;13.754;2023-08-30T07:17:38;19.20;99.90
20291;DHT22;10304;51.074;13.754;2023-08-30T07:20:12;19.20;99.90
20291;DHT22;10304;51.074;13.754;2023-08-30T07:22:39;19.20;99.90
20291;DHT22;10304;51.074;13.754;2023-08-30T07:25:06;19.30;99.90
20291;DHT22;10304;51.074;13.754;2023-08-30T07:27:33;19.40;99.90
20291;DHT22;10304;51.074;13.754;2023-08-30T07:30:02;19.40;99.90
20291;DHT22;10304;51.074;13.754;2023-08-30T07:32:30;19.50;99.90
20291;DHT22;10304;51.074;13.754;2023-08-30T07:34:57;19.50;99.90
20291;DHT22;10304;51.074;13.754;2023-08-30T07:37:25;19.60;99.90
20291;DHT22;10304;51.074;13.754;2023-08-30T07:39:52;19.60;99.90
20291;DHT22;10304;51.074;13.754;2023-08-30T07:42:20;19.60;1.00
20291;DHT22;10304;51.074;13.754;2023-08-30T07:44:46;19.70;1.00
20291;DHT22;10304;51.074;13.754;2023-08-30T07:47:13;19.70;1.00
20291;DHT22;10304;51.074;13.754;2023-08-30T07:49:41;19.70;1.00
20291;DHT22;10304;51.074;13.754;2023-08-30T07:52:07;19.70;1.00
20291;DHT22;10304;51.074;13.754;2023-08-30T07:54:39;19.80;59.20
20291;DHT22;10304;51.074;13.754;2023-08-30T07:57:06;19.90;1.00
20291;DHT22;10304;51.074;13.754;2023-08-30T07:59:35;19.90;1.00
20291;DHT22;10304;51.074;13.754;2023-08-30T08:02:05;19.90;1.00
20291;DHT22;10304;51.074;13.754;2023-08-30T08:04:35;20.00;99.90
20291;DHT22;10304;51.074;13.754;2023-08-30T08:07:02;20.00;99.90
20291;DHT22;10304;51.074;13.754;2023-08-30T08:09:30;20.00;99.90
20291;DHT22;10304;51.074;13.754;2023-08-30T08:11:57;20.10;99.90
20291;DHT22;10304;51.074;13.754;2023-08-30T08:14:24;20.10;99.90
20291;DHT22;10304;51.074;13.754;2023-08-30T08:16:51;20.10;99.90
20291;DHT22;10304;51.074;13.754;2023-08-30T08:19:18;20.20;99.90
20291;DHT22;10304;51.074;13.754;2023-08-30T08:21:50;20.20;89.30
20291;DHT22;10304;51.074;13.754;2023-08-30T08:24:20;20.20;1.00
20291;DHT22;10304;51.074;13.754;2023-08-30T08:26:47;20.20;1.00
20291;DHT22;10304;51.074;13.754;2023-08-30T08:29:15;20.20;1.00
20291;DHT22;10304;51.074;13.754;2023-08-30T08:31:42;20.30;1.00
20291;DHT22;10304;51.074;13.754;2023-08-30T08:34:11;20.40;1.00
20291;DHT22;10304;51.074;13.754;2023-08-30T08:36:39;20.40;1.00
20291;DHT22;10304;51.074;13.754;2023-08-30T08:39:06;20.60;1.00
20291;DHT22;10304;51.074;13.754;2023-08-30T08:41:40;20.70;1.00
20291;DHT22;10304;51.074;13.754;2023-08-30T08:44:09;20.70;1.00
20291;DHT22;10304;51.074;13.754;2023-08-30T08:46:37;20.80;1.00
20291;DHT22;10304;51.074;13.754;2023-08-30T08:49:15;21.00;1.00
20291;DHT22;10304;51.074;13.754;2023-08-30T08:51:43;21.10;1.00
20291;DHT22;10304;51.074;13.754;2023-08-30T08:54:12;21.20;99.90
20291;DHT22;10304;51.074;13.754;2023-08-30T08:56:39;21.20;99.90
20291;DHT22;10304;51.074;13.754;2023-08-30T08:59:07;21.20;66.90
20291;DHT22;10304;51.074;13.754;2023-08-30T09:01:36;21.20;94.70
20291;DHT22;10304;51.074;13.754;2023-08-30T09:04:09;21.20;99.90
20291;DHT22;10304;51.074;13.754;2023-08-30T09:06:37;21.30;1.00
20291;DHT22;10304;51.074;13.754;2023-08-30T09:09:07;21.30;1.00
20291;DHT22;10304;51.074;13.754;2023-08-30T09:11:35;21.30;1.00
20291;DHT22;10304;51.074;13.754;2023-08-30T09:14:17;21.30;1.00
20291;DHT22;10304;51.074;13.754;2023-08-30T09:17:03;21.40;1.00
20291;DHT22;10304;51.074;13.754;2023-08-30T09:19:30;21.50;1.00
20291;DHT22;10304;51.074;13.754;2023-08-30T09:21:58;21.60;1.00
20291;DHT22;10304;51.074;13.754;2023-08-30T09:24:26;21.60;1.00
20291;DHT22;10304;51.074;13.754;2023-08-30T09:27:03;21.70;1.00
20291;DHT22;10304;51.074;13.754;2023-08-30T09:29:30;21.80;1.00
20291;DHT22;10304;51.074;13.754;2023-08-30T09:31:58;22.00;1.00
20291;DHT22;10304;51.074;13.754;2023-08-30T09:34:25;22.10;1.00
20291;DHT22;10304;51.074;13.754;2023-08-30T09:36:53;22.20;1.00
20291;DHT22;10304;51.074;13.754;2023-08-30T09:39:20;22.30;1.00
20291;DHT22;10304;51.074;13.754;2023-08-30T09:41:49;22.40;1.00
20291;DHT22;10304;51.074;13.754;2023-08-30T09:44:18;22.50;1.00
20291;DHT22;10304;51.074;13.754;2023-08-30T09:46:49;22.70;1.00
20291;DHT22;10304;51.074;13.754;2023-08-30T09:49:24;22.80;1.00
20291;DHT22;10304;51.074;13.754;2023-08-30T09:51:53;23.00;1.00
20291;DHT22;10304;51.074;13.754;2023-08-30T09:54:27;23.20;1.00
20291;DHT22;10304;51.074;13.754;2023-08-30T09:56:59;23.30;99.90
20291;DHT22;10304;51.074;13.754;2023-08-30T09:59:27;23.40;99.90
20291;DHT22;10304;51.074;13.754;2023-08-30T10:01:54;23.50;99.90
20291;DHT22;10304;51.074;13.754;2023-08-30T10:04:22;23.50;99.90
20291;DHT22;10304;51.074;13.754;2023-08-30T10:06:50;23.50;99.90
20291;DHT22;10304;51.074;13.754;2023-08-30T10:09:18;23.40;99.90
20291;DHT22;10304;51.074;13.754;2023-08-30T10:11:46;23.50;99.90
20291;DHT22;10304;51.074;13.754;2023-08-30T10:14:17;23.60;99.90
20291;DHT22;10304;51.074;13.754;2023-08-30T10:16:45;23.60;99.90
20291;DHT22;10304;51.074;13.754;2023-08-30T10:19:17;23.70;99.90
20291;DHT22;10304;51.074;13.754;2023-08-30T10:21:48;23.80;99.90
20291;DHT22;10304;51.074;13.754;2023-08-30T10:24:20;23.80;99.90
20291;DHT22;10304;51.074;13.754;2023-08-30T10:27:03;23.90;99.90
20291;DHT22;10304;51.074;13.754;2023-08-30T10:29:33;23.90;99.90
20291;DHT22;10304;51.074;13.754;2023-08-30T10:32:04;24.00;99.90
20291;DHT22;10304;51.074;13.754;2023-08-30T10:34:35;24.00;99.90
20291;DHT22;10304;51.074;13.754;2023-08-30T10:37:06;24.20;99.90
20291;DHT22;10304;51.074;13.754;2023-08-30T10:39:43;24.50;99.90
20291;DHT22;10304;51.074;13.754;2023-08-30T10:42:16;24.70;28.70
20291;DHT22;10304;51.074;13.754;2023-08-30T10:47:25;24.90;1.00
20291;DHT22;10304;51.074;13.754;2023-08-30T10:49:57;25.00;1.00
20291;DHT22;10304;51.074;13.754;2023-08-30T10:52:27;25.10;1.00
20291;DHT22;10304;51.074;13.754;2023-08-30T10:55:08;25.20;1.00
20291;DHT22;10304;51.074;13.754;2023-08-30T10:57:35;25.10;1.00
20291;DHT22;10304;51.074;13.754;2023-08-30T11:00:19;25.10;1.00
20291;DHT22;10304;51.074;13.754;2023-08-30T11:02:48;25.20;1.00
20291;DHT22;10304;51.074;13.754;2023-08-30T11:05:17;25.20;1.00
20291;DHT22;10304;51.074;13.754;2023-08-30T11:07:45;25.20;1.00
20291;DHT22;10304;51.074;13.754;2023-08-30T11:10:12;25.20;1.00
20291;DHT22;10304;51.074;13.754;2023-08-30T11:12:44;25.20;1.00
20291;DHT22;10304;51.074;13.754;2023-08-30T11:15:12;25.30;1.00
20291;DHT22;10304;51.074;13.754;2023-08-30T11:17:43;25.40;1.00
20291;DHT22;10304;51.074;13.754;2023-08-30T11:20:15;25.50;1.00
20291;DHT22;10304;51.074;13.754;2023-08-30T11:22:45;25.60;1.00
20291;DHT22;10304;51.074;13.754;2023-08-30T11:25:13;25.80;1.00
20291;DHT22;10304;51.074;13.754;2023-08-30T11:27:40;26.00;1.00
20291;DHT22;10304;51.074;13.754;2023-08-30T11:30:09;26.20;1.00
20291;DHT22;10304;51.074;13.754;2023-08-30T11:32:41;26.40;1.00
20291;DHT22;10304;51.074;13.754;2023-08-30T11:35:11;26.80;1.00
20291;DHT22;10304;51.074;13.754;2023-08-30T11:37:40;27.00;1.00
20291;DHT22;10304;51.074;13.754;2023-08-30T11:40:08;27.20;1.00
20291;DHT22;10304;51.074;13.754;2023-08-30T11:42:38;27.40;1.00
20291;DHT22;10304;51.074;13.754;2023-08-30T11:45:05;27.60;1.00
20291;DHT22;10304;51.074;13.754;2023-08-30T11:47:34;27.70;1.00
20291;DHT22;10304;51.074;13.754;2023-08-30T11:50:01;27.90;1.00
20291;DHT22;10304;51.074;13.754;2023-08-30T11:52:28;28.10;1.00
20291;DHT22;10304;51.074;13.754;2023-08-30T11:54:55;28.20;1.00
20291;DHT22;10304;51.074;13.754;2023-08-30T11:57:23;28.50;1.00
20291;DHT22;10304;51.074;13.754;2023-08-30T11:59:49;28.70;1.00
20291;DHT22;10304;51.074;13.754;2023-08-30T12:02:18;28.90;1.00
20291;DHT22;10304;51.074;13.754;2023-08-30T12:04:46;29.20;1.00
20291;DHT22;10304;51.074;13.754;2023-08-30T12:07:24;29.50;1.00
20291;DHT22;10304;51.074;13.754;2023-08-30T12:10:04;29.80;1.00
20291;DHT22;10304;51.074;13.754;2023-08-30T12:12:31;30.20;1.00
20291;DHT22;10304;51.074;13.754;2023-08-30T12:14:58;30.60;1.00
20291;DHT22;10304;51.074;13.754;2023-08-30T12:17:25;31.00;1.00
20291;DHT22;10304;51.074;13.754;2023-08-30T12:19:56;31.50;1.00
20291;DHT22;10304;51.074;13.754;2023-08-30T12:22:23;32.00;1.00
20291;DHT22;10304;51.074;13.754;2023-08-30T12:24:50;32.30;1.00
20291;DHT22;10304;51.074;13.754;2023-08-30T12:27:17;32.20;1.00
20291;DHT22;10304;51.074;13.754;2023-08-30T12:29:44;32.00;1.00
20291;DHT22;10304;51.074;13.754;2023-08-30T12:32:11;31.70;1.00
20291;DHT22;10304;51.074;13.754;2023-08-30T12:34:38;31.40;1.00
20291;DHT22;10304;51.074;13.754;2023-08-30T12:37:05;31.10;1.00
20291;DHT22;10304;51.074;13.754;2023-08-30T12:39:32;30.90;1.00
20291;DHT22;10304;51.074;13.754;2023-08-30T12:41:59;30.60;1.00
20291;DHT22;10304;51.074;13.754;2023-08-30T12:44:26;30.30;1.00
20291;DHT22;10304;51.074;13.754;2023-08-30T12:46:53;29.90;1.00
20291;DHT22;10304;51.074;13.754;2023-08-30T12:49:20;29.60;1.00
20291;DHT22;10304;51.074;13.754;2023-08-30T12:51:47;29.30;1.00
20291;DHT22;10304;51.074;13.754;2023-08-30T12:54:14;28.90;1.00
20291;DHT22;10304;51.074;13.754;2023-08-30T12:56:42;28.60;1.00
20291;DHT22;10304;51.074;13.754;2023-08-30T12:59:08;28.40;1.00
20291;DHT22;10304;51.074;13.754;2023-08-30T13:01:35;28.10;1.00
20291;DHT22;10304;51.074;13.754;2023-08-30T13:04:06;27.90;1.00
20291;DHT22;10304;51.074;13.754;2023-08-30T13:06:34;27.60;1.00
20291;DHT22;10304;51.074;13.754;2023-08-30T13:09:01;27.30;1.00
20291;DHT22;10304;51.074;13.754;2023-08-30T13:11:27;27.00;1.00
20291;DHT22;10304;51.074;13.754;2023-08-30T13:13:55;26.70;1.00
20291;DHT22;10304;51.074;13.754;2023-08-30T13:16:25;26.50;1.00
20291;DHT22;10304;51.074;13.754;2023-08-30T13:18:52;26.40;1.00
20291;DHT22;10304;51.074;13.754;2023-08-30T13:21:19;26.60;1.00
20291;DHT22;10304;51.074;13.754;2023-08-30T13:23:53;27.00;1.00
20291;DHT22;10304;51.074;13.754;2023-08-30T13:26:20;27.40;1.00
20291;DHT22;10304;51.074;13.754;2023-08-30T13:28:46;27.80;1.00
20291;DHT22;10304;51.074;13.754;2023-08-30T13:31:13;28.20;1.00
20291;DHT22;10304;51.074;13.754;2023-08-30T13:33:40;28.70;1.00
20291;DHT22;10304;51.074;13.754;2023-08-30T13:36:07;29.30;1.00
20291;DHT22;10304;51.074;13.754;2023-08-30T13:38:34;29.80;1.00
20291;DHT22;10304;51.074;13.754;2023-08-30T13:41:01;30.40;1.00
20291;DHT22;10304;51.074;13.754;2023-08-30T13:43:28;30.90;1.00
20291;DHT22;10304;51.074;13.754;2023-08-30T13:45:59;31.30;1.00
20291;DHT22;10304;51.074;13.754;2023-08-30T13:48:26;31.70;1.00
20291;DHT22;10304;51.074;13.754;2023-08-30T13:50:53;32.20;1.00
20291;DHT22;10304;51.074;13.754;2023-08-30T13:53:20;32.50;1.00
20291;DHT22;10304;51.074;13.754;2023-08-30T13:55:47;32.70;1.00
20291;DHT22;10304;51.074;13.754;2023-08-30T13:58:17;32.90;1.00
20291;DHT22;10304;51.074;13.754;2023-08-30T14:00:47;33.10;1.00
20291;DHT22;10304;51.074;13.754;2023-08-30T14:03:14;33.30;1.00
20291;DHT22;10304;51.074;13.754;2023-08-30T14:05:42;33.70;1.00
20291;DHT22;10304;51.074;13.754;2023-08-30T14:08:09;33.90;1.00
20291;DHT22;10304;51.074;13.754;2023-08-30T14:10:36;34.20;1.00
20291;DHT22;10304;51.074;13.754;2023-08-30T14:13:03;34.60;1.00
20291;DHT22;10304;51.074;13.754;2023-08-30T14:15:30;34.90;1.00
20291;DHT22;10304;51.074;13.754;2023-08-30T14:17:57;35.00;1.00
20291;DHT22;10304;51.074;13.754;2023-08-30T14:20:24;35.10;1.00
20291;DHT22;10304;51.074;13.754;2023-08-30T14:22:51;35.20;1.00
20291;DHT22;10304;51.074;13.754;2023-08-30T14:25:18;35.40;1.00
20291;DHT22;10304;51.074;13.754;2023-08-30T14:27:45;35.70;1.00
20291;DHT22;10304;51.074;13.754;2023-08-30T14:30:12;35.80;1.00
20291;DHT22;10304;51.074;13.754;2023-08-30T14:32:39;35.80;1.00
20291;DHT22;10304;51.074;13.754;2023-08-30T14:35:06;35.60;1.00
20291;DHT22;10304;51.074;13.754;2023-08-30T14:37:33;35.60;1.00
20291;DHT22;10304;51.074;13.754;2023-08-30T14:40:07;35.60;1.00
20291;DHT22;10304;51.074;13.754;2023-08-30T14:42:35;35.60;1.00
20291;DHT22;10304;51.074;13.754;2023-08-30T14:45:02;35.30;1.00
20291;DHT22;10304;51.074;13.754;2023-08-30T14:47:30;35.10;1.00
20291;DHT22;10304;51.074;13.754;2023-08-30T14:49:58;34.90;1.00
20291;DHT22;10304;51.074;13.754;2023-08-30T14:52:24;34.50;1.00
20291;DHT22;10304;51.074;13.754;2023-08-30T14:54:51;34.10;1.00
20291;DHT22;10304;51.074;13.754;2023-08-30T14:57:18;33.90;1.00
20291;DHT22;10304;51.074;13.754;2023-08-30T14:59:46;33.60;1.00
20291;DHT22;10304;51.074;13.754;2023-08-30T15:02:14;33.20;1.00
20291;DHT22;10304;51.074;13.754;2023-08-30T15:04:41;32.70;1.00
20291;DHT22;10304;51.074;13.754;2023-08-30T15:07:08;32.30;1.00
20291;DHT22;10304;51.074;13.754;2023-08-30T15:09:35;31.80;1.00
20291;DHT22;10304;51.074;13.754;2023-08-30T15:12:02;31.30;1.00
20291;DHT22;10304;51.074;13.754;2023-08-30T15:14:30;30.90;1.00
20291;DHT22;10304;51.074;13.754;2023-08-30T15:16:57;30.40;1.00
20291;DHT22;10304;51.074;13.754;2023-08-30T15:19:23;29.90;1.00
20291;DHT22;10304;51.074;13.754;2023-08-30T15:21:50;29.60;1.00
20291;DHT22;10304;51.074;13.754;2023-08-30T15:24:17;29.30;1.00
20291;DHT22;10304;51.074;13.754;2023-08-30T15:26:44;29.00;1.00
20291;DHT22;10304;51.074;13.754;2023-08-30T15:29:11;28.80;1.00
20291;DHT22;10304;51.074;13.754;2023-08-30T15:31:38;28.50;1.00
20291;DHT22;10304;51.074;13.754;2023-08-30T15:34:05;28.30;1.00
20291;DHT22;10304;51.074;13.754;2023-08-30T15:36:32;28.20;1.00